Melrude, Minnesota
Current Conditions -  °F | °C
As of 6:11 AM on Sunday 21 Dec 2014 (Local Time) from KEVM Reporting Station
Haze Haze  
Wind Chill: 22°   Ceiling: 500
Heat Index: 30°   Visibility: 5mi
Dew Point: 30°   Wind: 9mph
Humidity: 100%   Direction: 160°SSE
Pressure: 29.9"   Gusts: NA
Location:  47.25°N, 92.42°W
Report Text: KEVM 211211Z AUTO 16008KT 5SM BR OVC005 M01/M01 A2990 RMK AO2
Loading
Personal Weather Stations






























Interactive Weather Map New forecast layout! Learn more

10-Day Weather Forecast

Advertisements
Track Severe Weather on mobile